createdAt,value
2018-08-03T00:02:20.053Z,6.53
2018-08-03T00:04:55.247Z,6.47
2018-08-03T00:07:30.748Z,6.40
2018-08-03T00:10:07.737Z,6.43
2018-08-03T00:12:43.571Z,6.70
2018-08-03T00:15:18.612Z,6.23
2018-08-03T00:17:54.213Z,6.13
2018-08-03T00:20:29.421Z,6.53
2018-08-03T00:23:04.755Z,6.63
2018-08-03T00:25:39.572Z,6.07
2018-08-03T00:28:15.268Z,6.67
2018-08-03T00:30:50.101Z,6.00
2018-08-03T00:33:24.865Z,6.67
2018-08-03T00:35:59.493Z,6.83
2018-08-03T00:38:34.414Z,6.53
2018-08-03T00:41:09.348Z,5.97
2018-08-03T00:43:44.797Z,5.77
2018-08-03T00:46:19.854Z,6.53
2018-08-03T00:48:55.158Z,6.10
2018-08-03T00:51:30.286Z,6.30
2018-08-03T00:54:05.349Z,5.70
2018-08-03T00:56:40.990Z,5.60
2018-08-03T00:59:17.046Z,6.63
2018-08-03T01:01:52.210Z,5.70
2018-08-03T01:04:27.679Z,6.00
2018-08-03T01:07:02.742Z,6.13
2018-08-03T01:09:37.853Z,5.10
2018-08-03T01:12:14.751Z,5.33
2018-08-03T01:14:49.531Z,6.20
2018-08-03T01:17:24.699Z,6.17
2018-08-03T01:20:00.066Z,5.90
2018-08-03T01:22:35.042Z,5.33
2018-08-03T01:25:10.529Z,5.87
2018-08-03T01:27:45.874Z,5.60
2018-08-03T01:30:21.214Z,6.10
2018-08-03T01:32:56.293Z,6.30
2018-08-03T01:35:31.817Z,5.70
2018-08-03T01:38:07.222Z,6.07
2018-08-03T01:40:42.351Z,5.97
2018-08-03T01:43:17.354Z,5.87
2018-08-03T01:45:52.358Z,6.43
2018-08-03T01:48:27.358Z,5.93
2018-08-03T01:51:02.543Z,6.87
2018-08-03T01:53:42.311Z,5.80
2018-08-03T01:56:17.540Z,5.83
2018-08-03T01:58:52.965Z,5.73
2018-08-03T02:01:27.986Z,5.77
2018-08-03T02:04:03.272Z,6.30
2018-08-03T02:06:38.333Z,6.83
2018-08-03T02:09:13.402Z,6.63
2018-08-03T02:11:48.297Z,6.40
2018-08-03T02:14:23.439Z,6.10
2018-08-03T02:16:58.186Z,6.73
2018-08-03T02:19:33.736Z,6.00
2018-08-03T02:22:09.273Z,6.37
2018-08-03T02:24:44.586Z,6.37
2018-08-03T02:27:19.675Z,6.23
2018-08-03T02:29:55.098Z,5.70
2018-08-03T02:32:30.863Z,6.27
2018-08-03T02:35:06.160Z,6.30
2018-08-03T02:37:42.112Z,6.63
2018-08-03T02:40:17.143Z,6.83
2018-08-03T02:42:52.299Z,6.90
2018-08-03T02:45:28.323Z,6.70
2018-08-03T02:48:03.359Z,6.30
2018-08-03T02:50:38.423Z,6.93
2018-08-03T02:53:13.487Z,7.00
2018-08-03T02:55:48.518Z,6.60
2018-08-03T02:58:23.331Z,6.40
2018-08-03T03:00:58.184Z,7.00
2018-08-03T03:03:33.317Z,7.17
2018-08-03T03:06:08.176Z,6.70
2018-08-03T03:08:43.179Z,6.77
2018-08-03T03:11:19.162Z,7.30
2018-08-03T03:13:54.117Z,7.07
2018-08-03T03:16:29.742Z,7.00
2018-08-03T03:19:05.419Z,7.10
2018-08-03T03:21:40.189Z,6.80
2018-08-03T03:24:15.373Z,7.13
2018-08-03T03:26:50.334Z,7.10
2018-08-03T03:29:25.454Z,7.70
2018-08-03T03:32:00.520Z,7.40
2018-08-03T03:34:35.537Z,6.93
2018-08-03T03:37:10.503Z,6.60
2018-08-03T03:39:45.272Z,6.63
2018-08-03T03:42:20.145Z,6.90
2018-08-03T03:44:55.494Z,7.20
2018-08-03T03:47:30.664Z,7.23
2018-08-03T03:50:06.299Z,6.60
2018-08-03T03:52:41.209Z,6.80
2018-08-03T03:55:16.279Z,7.73
2018-08-03T03:57:51.814Z,7.70
2018-08-03T04:00:27.022Z,7.80
2018-08-03T04:03:01.986Z,6.83
2018-08-03T04:05:36.825Z,8.20
2018-08-03T04:08:12.263Z,7.80
2018-08-03T04:10:47.843Z,7.70
2018-08-03T04:13:22.870Z,7.87
2018-08-03T04:15:58.035Z,7.70
2018-08-03T04:18:33.047Z,7.50
2018-08-03T04:21:08.143Z,7.63
2018-08-03T04:23:44.212Z,7.43
2018-08-03T04:26:19.096Z,7.67
2018-08-03T04:28:54.264Z,7.53
2018-08-03T04:31:30.227Z,7.50
2018-08-03T04:34:06.661Z,8.10
2018-08-03T04:36:41.867Z,8.90
2018-08-03T04:39:17.160Z,7.30
2018-08-03T04:41:51.961Z,7.77
2018-08-03T04:44:27.678Z,7.70
2018-08-03T04:47:02.370Z,8.20
2018-08-03T04:49:37.398Z,7.97
2018-08-03T04:52:12.422Z,8.03
2018-08-03T04:54:47.933Z,7.33
2018-08-03T04:57:23.861Z,7.70
2018-08-03T04:59:59.010Z,7.60
2018-08-03T05:02:34.884Z,9.10
2018-08-03T05:05:10.916Z,8.27
2018-08-03T05:07:46.165Z,7.80
2018-08-03T05:10:21.785Z,8.53
2018-08-03T05:12:57.070Z,7.93
2018-08-03T05:15:31.980Z,8.97
2018-08-03T05:18:07.575Z,8.17
2018-08-03T05:20:43.302Z,8.50
2018-08-03T05:23:18.404Z,8.60
2018-08-03T05:25:54.545Z,8.43
2018-08-03T05:28:29.559Z,9.77
2018-08-03T05:31:04.650Z,8.90
2018-08-03T05:33:40.057Z,9.50
2018-08-03T05:36:15.679Z,8.67
2018-08-03T05:38:51.949Z,10.00
2018-08-03T05:41:26.940Z,9.20
2018-08-03T05:44:01.957Z,8.90
2018-08-03T05:46:36.572Z,9.40
2018-08-03T05:49:11.893Z,9.90
2018-08-03T05:51:47.275Z,9.50
2018-08-03T05:54:23.245Z,8.80
2018-08-03T05:56:59.328Z,9.00
2018-08-03T05:59:34.297Z,9.83
2018-08-03T06:02:09.385Z,9.00
2018-08-03T06:04:44.304Z,10.10
2018-08-03T06:07:20.184Z,10.33
2018-08-03T06:09:55.617Z,10.60
2018-08-03T06:12:30.611Z,9.90
2018-08-03T06:15:08.113Z,10.00
2018-08-03T06:17:43.815Z,9.60
2018-08-03T06:20:18.832Z,10.43
2018-08-03T06:22:54.207Z,11.17
2018-08-03T06:25:29.449Z,11.40
2018-08-03T06:28:05.092Z,10.47
2018-08-03T06:30:41.578Z,11.90
2018-08-03T06:33:17.013Z,9.57
2018-08-03T06:35:52.216Z,10.13
2018-08-03T06:38:28.323Z,9.40
2018-08-03T06:41:04.114Z,11.50
2018-08-03T06:43:39.384Z,12.03
2018-08-03T06:46:14.792Z,12.90
2018-08-03T06:48:49.993Z,12.00
2018-08-03T06:51:25.604Z,9.90
2018-08-03T06:54:01.084Z,12.33
2018-08-03T06:56:36.888Z,11.80
2018-08-03T06:59:06.390Z,11.00
2018-08-03T07:01:41.735Z,10.77
2018-08-03T07:04:16.911Z,11.57
2018-08-03T07:06:52.155Z,11.40
2018-08-03T07:09:27.311Z,10.20
2018-08-03T07:12:03.400Z,11.53
2018-08-03T07:14:38.658Z,11.50
2018-08-03T07:17:14.063Z,10.90
2018-08-03T07:19:43.564Z,10.67
2018-08-03T07:22:19.021Z,10.47
2018-08-03T07:24:56.217Z,11.23
2018-08-03T07:27:31.734Z,12.20
2018-08-03T07:30:07.710Z,12.60
2018-08-03T07:32:42.996Z,11.80
2018-08-03T07:35:18.089Z,10.00
2018-08-03T07:37:53.406Z,10.13
2018-08-03T07:40:28.827Z,10.33
2018-08-03T07:43:04.285Z,10.20
2018-08-03T07:45:39.427Z,9.70
2018-08-03T07:48:16.677Z,9.50
2018-08-03T07:50:51.943Z,9.60
2018-08-03T07:53:27.280Z,10.40
2018-08-03T07:56:02.412Z,9.30
2018-08-03T07:58:38.053Z,10.33
2018-08-03T08:01:13.629Z,10.27
2018-08-03T08:03:44.119Z,9.83
2018-08-03T08:06:20.087Z,9.80
2018-08-03T08:09:02.702Z,8.90
2018-08-03T08:11:38.605Z,8.83
2018-08-03T08:14:13.781Z,10.00
2018-08-03T08:16:49.023Z,9.33
2018-08-03T08:19:24.297Z,9.30
2018-08-03T08:21:59.206Z,9.40
2018-08-03T08:24:29.169Z,9.73
2018-08-03T08:27:04.711Z,8.97
2018-08-03T08:29:40.046Z,9.57
2018-08-03T08:32:18.445Z,9.13
2018-08-03T08:34:48.103Z,9.33
2018-08-03T08:37:23.449Z,8.80
2018-08-03T08:39:58.538Z,8.70
2018-08-03T08:42:33.553Z,8.87
2018-08-03T08:45:09.691Z,9.17
2018-08-03T08:47:45.897Z,8.10
2018-08-03T08:50:20.765Z,8.00
2018-08-03T08:52:56.209Z,9.00
2018-08-03T08:55:31.307Z,9.77
2018-08-03T08:58:06.794Z,8.07
2018-08-03T09:00:42.315Z,9.67
2018-08-03T09:03:17.475Z,8.80
2018-08-03T09:05:52.528Z,8.83
2018-08-03T09:08:27.707Z,8.97
2018-08-03T09:11:03.642Z,8.37
2018-08-03T09:13:38.698Z,10.03
2018-08-03T09:16:13.779Z,10.17
2018-08-03T09:18:49.176Z,9.33
2018-08-03T09:21:29.426Z,8.37
2018-08-03T09:24:04.864Z,9.30
2018-08-03T09:26:40.702Z,8.87
2018-08-03T09:29:15.699Z,8.23
2018-08-03T09:31:50.858Z,9.80
2018-08-03T09:34:25.934Z,8.97
2018-08-03T09:37:01.211Z,8.77
2018-08-03T09:39:36.435Z,8.53
2018-08-03T09:42:11.282Z,8.63
2018-08-03T09:44:46.451Z,8.20
2018-08-03T09:47:21.502Z,8.23
2018-08-03T09:49:56.545Z,8.27
2018-08-03T09:52:32.342Z,8.63
2018-08-03T09:55:07.754Z,9.27
2018-08-03T09:57:43.181Z,8.40
2018-08-03T10:00:22.792Z,8.87
2018-08-03T10:02:57.875Z,9.03
2018-08-03T10:05:33.655Z,8.60
2018-08-03T10:08:08.573Z,9.03
2018-08-03T10:10:43.678Z,9.37
2018-08-03T10:13:19.082Z,9.23
2018-08-03T10:15:59.164Z,8.60
2018-08-03T10:18:34.849Z,8.13
2018-08-03T10:21:09.875Z,8.33
2018-08-03T10:23:45.024Z,9.33
2018-08-03T10:26:20.156Z,9.40
2018-08-03T10:28:56.052Z,8.13
2018-08-03T10:31:31.002Z,9.27
2018-08-03T10:34:06.196Z,9.13
2018-08-03T10:36:41.626Z,9.07
2018-08-03T10:39:16.833Z,8.50
2018-08-03T10:41:51.749Z,9.37
2018-08-03T10:44:27.498Z,9.27
2018-08-03T10:47:02.601Z,9.17
2018-08-03T10:49:37.678Z,9.50
2018-08-03T10:52:12.857Z,9.50
2018-08-03T10:54:48.196Z,9.67
2018-08-03T10:57:18.130Z,9.87
2018-08-03T10:59:48.120Z,10.00
2018-08-03T11:02:17.619Z,8.47
2018-08-03T11:04:47.446Z,9.43
2018-08-03T11:07:22.161Z,9.47
2018-08-03T11:09:57.758Z,9.60
2018-08-03T11:12:32.855Z,9.37
2018-08-03T11:15:07.473Z,9.03
2018-08-03T11:17:42.599Z,9.10
2018-08-03T11:20:18.089Z,8.73
2018-08-03T11:22:53.111Z,9.20
2018-08-03T11:25:28.518Z,9.10
2018-08-03T11:28:04.040Z,9.20
2018-08-03T11:30:38.911Z,8.77
2018-08-03T11:33:13.987Z,9.30
2018-08-03T11:35:49.663Z,8.77
2018-08-03T11:38:24.706Z,8.83
2018-08-03T11:41:00.002Z,8.73
2018-08-03T11:43:35.669Z,8.67
2018-08-03T11:46:10.877Z,8.37
2018-08-03T11:48:45.810Z,8.63
2018-08-03T11:51:21.184Z,8.60
2018-08-03T11:53:51.437Z,7.58
2018-08-03T11:56:21.304Z,8.50
2018-08-03T11:58:51.002Z,7.80
2018-08-03T12:01:20.304Z,8.57
2018-08-03T12:03:50.016Z,8.20
2018-08-03T12:06:19.258Z,7.87
2018-08-03T12:08:49.923Z,7.83
2018-08-03T12:11:19.365Z,7.90
2018-08-03T12:13:48.734Z,7.73
2018-08-03T12:16:18.281Z,7.20
2018-08-03T12:18:48.308Z,7.47
2018-08-03T12:21:18.494Z,7.47
2018-08-03T12:23:48.920Z,7.60
2018-08-03T12:26:18.874Z,7.77
2018-08-03T12:28:48.381Z,8.20
2018-08-03T12:31:17.870Z,7.90
2018-08-03T12:33:48.029Z,7.97
2018-08-03T12:36:17.627Z,8.03
2018-08-03T12:38:47.931Z,7.00
2018-08-03T12:41:18.386Z,7.80
2018-08-03T12:43:47.826Z,7.90
2018-08-03T12:46:18.412Z,7.72
2018-08-03T12:48:51.457Z,8.35
2018-08-03T12:51:23.283Z,7.67
2018-08-03T12:53:53.905Z,8.65
2018-08-03T12:56:24.439Z,7.00
2018-08-03T12:58:54.470Z,8.30
2018-08-03T13:01:24.721Z,8.30
2018-08-03T13:03:54.984Z,8.08
2018-08-03T13:06:30.806Z,7.58
2018-08-03T13:09:07.464Z,8.25
2018-08-03T13:11:43.919Z,8.53
2018-08-03T13:14:19.818Z,8.08
2018-08-03T13:16:55.425Z,8.05
2018-08-03T13:19:30.846Z,8.50
2018-08-03T13:22:11.255Z,8.23
2018-08-03T13:24:48.030Z,8.35
2018-08-03T13:27:24.035Z,8.60
2018-08-03T13:29:59.648Z,8.60
2018-08-03T13:32:35.200Z,8.93
2018-08-03T13:35:10.874Z,8.55
2018-08-03T13:37:46.741Z,8.45
2018-08-03T13:40:22.324Z,8.30
2018-08-03T13:42:58.161Z,8.63
2018-08-03T13:45:33.211Z,8.80
2018-08-03T13:48:08.365Z,8.53
2018-08-03T13:50:43.435Z,8.73
2018-08-03T13:53:19.201Z,8.83
2018-08-03T13:55:54.722Z,8.38
2018-08-03T13:58:29.752Z,8.13
2018-08-03T14:01:16.678Z,8.70
2018-08-03T14:03:54.122Z,8.80
2018-08-03T14:06:30.144Z,8.25
2018-08-03T14:09:07.375Z,8.50
2018-08-03T14:11:42.302Z,7.87
2018-08-03T14:14:17.980Z,7.83
2018-08-03T14:16:53.918Z,8.20
2018-08-03T14:19:29.505Z,7.53
2018-08-03T14:22:05.866Z,8.00
2018-08-03T14:24:41.940Z,7.60
2018-08-03T14:27:17.585Z,7.22
2018-08-03T14:29:53.238Z,7.87
2018-08-03T14:32:28.684Z,7.50
2018-08-03T14:35:04.430Z,7.95
2018-08-03T14:37:39.715Z,7.97
2018-08-03T14:40:15.629Z,8.18
2018-08-03T14:42:51.169Z,8.65
2018-08-03T14:45:27.268Z,7.00
2018-08-03T14:48:02.774Z,7.20
2018-08-03T14:50:38.504Z,7.30
2018-08-03T14:53:14.466Z,7.50
2018-08-03T14:55:50.190Z,7.60
2018-08-03T14:58:26.070Z,7.80
2018-08-03T15:01:02.847Z,7.08
2018-08-03T15:03:38.810Z,6.90
2018-08-03T15:06:14.877Z,8.03
2018-08-03T15:08:50.511Z,6.72
2018-08-03T15:11:27.369Z,7.67
2018-08-03T15:14:03.618Z,7.45
2018-08-03T15:16:40.917Z,7.28
2018-08-03T15:19:16.634Z,7.03
2018-08-03T15:21:52.494Z,7.42
2018-08-03T15:24:28.117Z,6.60
2018-08-03T15:27:04.320Z,6.83
2018-08-03T15:29:39.983Z,7.03
2018-08-03T15:32:16.659Z,6.55
2018-08-03T15:34:52.248Z,7.10
2018-08-03T15:37:28.007Z,6.87
2018-08-03T15:40:03.753Z,6.67
2018-08-03T15:42:39.071Z,6.77
2018-08-03T15:45:14.256Z,6.60
2018-08-03T15:47:50.535Z,6.40
2018-08-03T15:50:26.768Z,7.15
2018-08-03T15:53:02.718Z,7.00
2018-08-03T15:55:38.245Z,7.03
2018-08-03T15:58:13.744Z,6.43
2018-08-03T16:00:49.174Z,7.42
2018-08-03T16:03:25.149Z,6.60
2018-08-03T16:06:00.292Z,6.30
2018-08-03T16:08:36.063Z,7.53
2018-08-03T16:11:12.033Z,6.95
2018-08-03T16:13:47.438Z,6.93
2018-08-03T16:16:23.244Z,7.12
2018-08-03T16:18:58.921Z,6.92
2018-08-03T16:21:34.800Z,6.85
2018-08-03T16:24:11.743Z,7.10
2018-08-03T16:26:47.545Z,6.85
2018-08-03T16:29:23.238Z,7.28
2018-08-03T16:31:59.050Z,6.62
2018-08-03T16:34:34.595Z,7.50
2018-08-03T16:37:09.924Z,7.08
2018-08-03T16:39:45.673Z,6.97
2018-08-03T16:42:21.703Z,6.95
2018-08-03T16:44:57.829Z,6.78
2018-08-03T16:47:33.627Z,6.47
2018-08-03T16:50:09.527Z,6.92
2018-08-03T16:52:45.052Z,7.10
2018-08-03T16:55:20.740Z,6.42
2018-08-03T16:57:56.203Z,6.67
2018-08-03T17:00:32.179Z,6.90
2018-08-03T17:03:07.946Z,6.58
2018-08-03T17:05:43.966Z,7.03
2018-08-03T17:08:20.246Z,6.42
2018-08-03T17:10:56.126Z,6.72
2018-08-03T17:13:31.654Z,6.80
2018-08-03T17:16:07.961Z,7.07
2018-08-03T17:18:43.650Z,6.90
2018-08-03T17:21:20.253Z,7.17
2018-08-03T17:23:56.478Z,6.60
2018-08-03T17:26:32.325Z,6.60
2018-08-03T17:29:08.509Z,6.15
2018-08-03T17:31:50.248Z,6.20
2018-08-03T17:34:25.930Z,6.55
2018-08-03T17:37:01.519Z,6.70
2018-08-03T17:39:37.927Z,7.22
2018-08-03T17:42:13.747Z,7.05
2018-08-03T17:44:49.386Z,6.55
2018-08-03T17:47:25.075Z,6.50
2018-08-03T17:50:01.019Z,7.37
2018-08-03T17:52:36.990Z,7.17
2018-08-03T17:55:12.478Z,7.45
2018-08-03T17:57:48.565Z,6.95
2018-08-03T18:00:24.611Z,6.78
2018-08-03T18:03:00.573Z,6.75
2018-08-03T18:05:36.426Z,6.75
2018-08-03T18:08:12.427Z,7.05
2018-08-03T18:10:47.991Z,8.05
2018-08-03T18:13:23.675Z,7.60
2018-08-03T18:15:58.991Z,7.90
2018-08-03T18:18:34.707Z,7.37
2018-08-03T18:21:10.275Z,7.70
2018-08-03T18:23:47.020Z,7.25
2018-08-03T18:26:23.030Z,6.60
2018-08-03T18:28:58.598Z,6.60
2018-08-03T18:31:34.612Z,6.95
2018-08-03T18:34:10.390Z,6.85
2018-08-03T18:36:46.296Z,6.30
2018-08-03T18:39:21.351Z,7.10
2018-08-03T18:41:56.214Z,6.37
2018-08-03T18:44:32.449Z,6.72
2018-08-03T18:47:07.831Z,6.45
2018-08-03T18:49:43.260Z,6.23
2018-08-03T18:52:13.393Z,6.30
2018-08-03T18:54:43.819Z,6.70
2018-08-03T18:57:13.654Z,6.70
2018-08-03T18:59:44.032Z,7.45
2018-08-03T19:02:13.561Z,6.60
2018-08-03T19:04:43.333Z,6.30
2018-08-03T19:07:12.908Z,6.53
2018-08-03T19:09:43.107Z,6.40
2018-08-03T19:12:13.004Z,6.93
2018-08-03T19:14:50.326Z,6.00
2018-08-03T19:17:27.731Z,7.00
2018-08-03T19:20:03.739Z,7.10
2018-08-03T19:22:38.886Z,7.00
2018-08-03T19:25:14.198Z,6.90
2018-08-03T19:27:49.065Z,6.97
2018-08-03T19:30:24.367Z,7.10
2018-08-03T19:32:59.435Z,6.53
2018-08-03T19:35:35.238Z,7.17
2018-08-03T19:38:10.320Z,6.87
2018-08-03T19:40:46.358Z,6.80
2018-08-03T19:43:21.610Z,6.63
2018-08-03T19:45:56.952Z,22.23
2018-08-03T19:48:32.333Z,7.60
2018-08-03T19:51:07.751Z,6.50
2018-08-03T19:53:42.860Z,5.90
2018-08-03T19:56:18.089Z,7.20
2018-08-03T19:58:52.815Z,7.13
2018-08-03T20:01:28.191Z,7.27
2018-08-03T20:04:03.118Z,7.80
2018-08-03T20:06:38.501Z,7.13
2018-08-03T20:09:13.916Z,7.30
2018-08-03T20:11:49.038Z,7.00
2018-08-03T20:14:24.172Z,6.67
2018-08-03T20:16:59.444Z,7.80
2018-08-03T20:19:34.399Z,7.87
2018-08-03T20:22:16.962Z,6.73
2018-08-03T20:24:46.715Z,7.20
2018-08-03T20:27:21.626Z,7.73
2018-08-03T20:29:56.645Z,7.60
2018-08-03T20:32:32.263Z,6.67
2018-08-03T20:35:07.434Z,7.23
2018-08-03T20:37:45.921Z,6.90
2018-08-03T20:40:20.837Z,7.30
2018-08-03T20:42:56.098Z,7.03
2018-08-03T20:45:31.208Z,6.70
2018-08-03T20:48:06.277Z,6.60
2018-08-03T20:50:41.861Z,7.00
2018-08-03T20:53:17.067Z,7.40
2018-08-03T20:55:52.604Z,7.23
2018-08-03T20:58:27.803Z,7.67
2018-08-03T21:01:02.924Z,6.87
2018-08-03T21:03:38.052Z,7.20
2018-08-03T21:06:13.576Z,6.93
2018-08-03T21:08:49.228Z,6.60
2018-08-03T21:11:24.545Z,6.10
2018-08-03T21:13:59.746Z,6.60
2018-08-03T21:16:34.809Z,6.57
2018-08-03T21:19:10.701Z,6.50
2018-08-03T21:21:45.583Z,6.10
2018-08-03T21:24:20.947Z,5.87
2018-08-03T21:26:56.358Z,6.03
2018-08-03T21:29:31.206Z,6.30
2018-08-03T21:32:06.628Z,5.93
2018-08-03T21:34:41.478Z,6.03
2018-08-03T21:37:16.648Z,6.50
2018-08-03T21:39:51.478Z,6.10
2018-08-03T21:42:26.488Z,6.40
2018-08-03T21:45:01.685Z,6.30
2018-08-03T21:47:37.607Z,5.90
2018-08-03T21:50:12.577Z,6.00
2018-08-03T21:52:47.611Z,5.80
2018-08-03T21:55:23.135Z,5.93
2018-08-03T21:57:58.377Z,6.27
2018-08-03T22:00:33.447Z,6.27
2018-08-03T22:03:08.614Z,5.90
2018-08-03T22:05:44.387Z,6.43
2018-08-03T22:08:19.612Z,5.93
2018-08-03T22:10:54.710Z,6.40
2018-08-03T22:13:30.178Z,5.90
2018-08-03T22:16:05.802Z,6.83
2018-08-03T22:18:40.570Z,6.50
2018-08-03T22:21:15.798Z,5.93
2018-08-03T22:23:51.207Z,6.60
2018-08-03T22:26:26.159Z,6.97
2018-08-03T22:29:01.638Z,6.60
2018-08-03T22:31:36.560Z,6.40
2018-08-03T22:34:11.803Z,7.07
2018-08-03T22:36:46.976Z,6.90
2018-08-03T22:39:21.634Z,7.07
2018-08-03T22:41:56.730Z,6.67
2018-08-03T22:44:32.419Z,6.77
2018-08-03T22:47:07.488Z,7.47
2018-08-03T22:49:42.339Z,7.03
2018-08-03T22:52:18.787Z,7.37
2018-08-03T22:54:54.278Z,6.50
2018-08-03T22:57:29.504Z,8.37
2018-08-03T23:00:05.207Z,7.20
2018-08-03T23:02:40.915Z,6.90
2018-08-03T23:05:15.835Z,7.07
2018-08-03T23:07:51.244Z,7.03
2018-08-03T23:10:26.465Z,8.17
2018-08-03T23:13:01.489Z,6.60
2018-08-03T23:15:36.852Z,6.60
2018-08-03T23:18:11.981Z,7.20
2018-08-03T23:20:47.005Z,7.30
2018-08-03T23:23:22.223Z,7.60
2018-08-03T23:25:57.517Z,7.40
2018-08-03T23:28:32.576Z,7.80
2018-08-03T23:31:08.084Z,7.60
2018-08-03T23:33:43.843Z,7.63
2018-08-03T23:36:18.809Z,8.10
2018-08-03T23:38:53.957Z,7.53
2018-08-03T23:41:29.299Z,6.70
2018-08-03T23:44:04.606Z,7.20
2018-08-03T23:46:39.476Z,7.93
2018-08-03T23:49:14.548Z,6.90
2018-08-03T23:51:49.724Z,7.80
2018-08-03T23:54:24.927Z,7.87
2018-08-03T23:57:00.318Z,8.27
2018-08-03T23:59:35.051Z,8.10
